Les vidéos Equidia

Discipline Date Nom de la Course Hippodrome Alloc Jockey/Driver Red. Km Dist Corde Ferrure Autostart Class Video
Attelé 2017-12-20 ICO KIKI CAGNES-SUR-MER 20.000 K. DEVIENNE 1'15"80 2150 G A 10
Attelé 2017-12-03 L'OISE LYON-PARILLY 24.000 K. DEVIENNE 1'18"30 2600 G A 14
Attelé 2017-08-24 LAME NATURE DIVONNE 22.000 G. GELORMINI 2050 G A AI
Attelé 2017-08-07 PR. VON HOHENZ. CAGNES-SUR-MER 8.000 MME I. METZEMAEKERS 1'14"10 2150 G A 05
Attelé 2017-07-19 BIJOU CONTEMP. CAGNES-SUR-MER 25.000 K. DEVIENNE 1'16"10 2925 G 04
Attelé 2017-06-09 DE SAULT MARSEILLE PONT DE VIVAUX 26.000 S. STEFANO 2650 G AI
Attelé 2017-04-05 ROQUEVAIRE MARSEILLE PONT DE VIVAUX 6.000 S. ROUBAUD 2650 G NP
Attelé 2017-03-22 CHATEAU-GOMBERT MARSEILLE-BORELY 6.000 J. HAMELET 1'18"20 3000 G 11
Monté 2017-03-12 ALBENGA CAGNES-SUR-MER 40.000 MME LAETITIA GOUT 2925 G NP
Attelé 2017-03-04 HELLO CLASSIQUE CAGNES-SUR-MER 8.000 J. HAMELET 1'15"30 2150 G A 09
Attelé 2017-02-24 CLERMONT-FERRAN CAGNES-SUR-MER 8.000 J. HAMELET 1'17"40 2925 G 09
Attelé 2016-12-07 DES OEILLETS MARSEILLE-BORELY 6.000 S. ROUBAUD 1'17"40 3000 G 04
Attelé 2016-11-23 CAROMB MARSEILLE-BORELY 20.000 S. STEFANO 1'14"50 2300 G A 02
Attelé 2016-09-21 CARPENTRAS MARSEILLE-BORELY 25.000 S. STEFANO 3000 G AI
Attelé 2016-09-05 RH-ALP.SECURITE FEURS 6.000 S. ROUBAUD 1'19"80 3500 G 03
Attelé 2016-08-22 PERMANOT CAGNES-SUR-MER 8.000 S. ROUBAUD 1'14"90 2150 G A 01
Attelé 2016-08-15 CORBEAUX CAGNES-SUR-MER 8.000 S. ROUBAUD 1'16"50 2925 G 04
Attelé 2016-07-23 CAP B.ESPERANCE CAGNES-SUR-MER 8.000 S. ROUBAUD 1'16"20 2925 G 02
Attelé 2016-07-05 BANDOL MARSEILLE-BORELY 20.000 P. REPICHET 1'14"40 2300 G A 01
Attelé 2016-06-10 BOUILLADISSE MARSEILLE-BORELY 27.000 S. STEFANO 1'15"40 3000 G 02
Attelé 2016-06-04 BIGUGLIA MARSEILLE-BORELY 6.000 MLLE M. LE VEXIER 1'18"70 2300 G A 12
Attelé 2016-05-10 ROQUEVAIRE MARSEILLE-BORELY 6.000 S. ROUBAUD 1'17"60 2300 G A 10
Attelé 2016-04-21 LANNEMEZAN LYON-PARILLY 28.000 S. STEFANO 1'16"40 2850 G 01
Attelé 2016-01-24 DES PALMIERS CAGNES-SUR-MER 8.000 D. CROZET 1'15"40 2150 G A 10
Attelé 2015-12-21 VALLEE ESTERON CAGNES-SUR-MER 20.000 R. FONZO 1'17"30 2150 G A 08
Attelé 2015-12-11 MEAULNES CORTA CAGNES-SUR-MER 20.000 R. FONZO 1'16"10 2150 G A 07
Attelé 2015-11-25 GERARD PUECH MARSEILLE-BORELY 6.000 D. CROZET 3000 G
Attelé 2015-11-04 LA CAMARGUE MARSEILLE PONT DE VIVAUX 21.000 R. FONZO 2650 G 02
Attelé 2015-10-11 VIRE GRAIGNES 6.000 MLLE A. RENAULT 2700 G
Attelé 2015-09-27 VILLE DE VIRE VIRE 25.000 A.G. MAILLARD 1'17"80 2800 D 06
Attelé 2015-08-17 SAINT-DIZIER PARIS-VINCENNES 14.000 MME E. LAPEYRE 1'17"20 2850 G 09
Attelé 2015-08-05 THERMES MARINS SAINT MALO 8.000 MLLE A. RENAULT 1'19"00 2950 D 04
Attelé 2015-07-26 DE CHAUSEY AGON-COUTAINVILLE 30.000 F. LAGADEUC 1'23"90 3375 G 04
Attelé 2015-07-04 TROUVILLE/MER CLAIREFONTAINE 25.000 CH. CLIN 2900 D
Attelé 2014-08-23 MARA BOURBON CAGNES-SUR-MER 8.000 D. CROZET 1609 A AI
Attelé 2014-08-04 DU DAUPHINE AIX LES BAINS 20.000 - 2000 11
Attelé 2014-07-07 D'ANVERS CAGNES-SUR-MER 8.000 - 1'16"70 2925 05
Attelé 2014-06-18 ALBERT VIEL MARSEILLE PONT DE VIVAUX 20.000 R. FONZO 1'18"00 2650 09
Attelé 2014-06-13 RAY JUST ENERGY MARSEILLE PONT DE VIVAUX 18.000 PH. BERTIN 1'18"30 2650 12
Attelé 2014-03-04 GLAIEULS CAGNES-SUR-MER 22.000 R. JAFFRELOT 2925
Attelé 2014-02-16 PARC ALPILLES LYON LA SOIE 20.000 R. JAFFRELOT 1'16"70 2700 01
Attelé 2014-01-30 DE L'HUVEAUNE MARSEILLE PONT DE VIVAUX 21.000 J. NOBECOURT 1'18"80 2650 01
Attelé 2014-01-15 DU PLAN D'AUPS MARSEILLE PONT DE VIVAUX 18.000 R. JAFFRELOT 1'18"30 2650 01